| time (UTC) | temp C | wind direction | speed KPH | gust KPH | rain 1hr cm | rain 24hr cm | rain mn cm | humidity % | barometer mb |
| 20260506201525 | 18 | 275 | 3.2 | 16.1 | 0.00 | 0.38 | 0.38 | 85 | 1004.4 |
| 20260506200012 | 18 | 292 | 4.8 | 14.5 | 0.00 | 0.38 | 0.38 | 85 | 1004.7 |
| 20260506194511 | 17 | 253 | 1.6 | 9.7 | 0.00 | 0.38 | 0.38 | 86 | 1004.8 |
| 20260506193008 | 17 | 281 | 6.4 | 14.5 | 0.00 | 0.38 | 0.38 | 87 | 1005.0 |
| 20260506191507 | 17 | 292 | 1.6 | 14.5 | 0.00 | 0.38 | 0.38 | 87 | 1005.1 |
| 20260506190009 | 17 | 238 | 4.8 | 12.9 | 0.00 | 0.38 | 0.38 | 87 | 1005.2 |
| 20260506184517 | 16 | 283 | 4.8 | 19.3 | 0.00 | 0.38 | 0.38 | 88 | 1005.3 |
| 20260506183004 | 16 | 248 | 3.2 | 11.3 | 0.00 | 0.38 | 0.38 | 88 | 1005.5 |
| 20260506181602 | 16 | 284 | 6.4 | 14.5 | 0.00 | 0.38 | 0.38 | 88 | 1005.6 |
| 20260506180002 | 16 | 277 | 4.8 | 16.1 | 0.00 | 0.38 | 0.38 | 88 | 1005.7 |
| 20260506174502 | 16 | 224 | 6.4 | 16.1 | 0.00 | 0.38 | 0.38 | 89 | 1005.6 |
| 20260506173100 | 16 | 238 | 4.8 | 17.7 | 0.00 | 0.38 | 0.38 | 89 | 1005.8 |
| 20260506171608 | 16 | 233 | 6.4 | 16.1 | 0.00 | 0.38 | 0.38 | 89 | 1005.8 |
| 20260506170059 | 16 | 212 | 6.4 | 11.3 | 0.03 | 0.38 | 0.38 | 89 | 1006.0 |
| 20260506164556 | 16 | 229 | 3.2 | 14.5 | 0.08 | 0.38 | 0.38 | 90 | 1005.9 |
| 20260506163056 | 16 | 235 | 4.8 | 16.1 | 0.10 | 0.38 | 0.38 | 90 | 1005.9 |
| 20260506161554 | 16 | 217 | 6.4 | 14.5 | 0.18 | 0.38 | 0.38 | 90 | 1006.2 |
| 20260506154551 | 16 | 201 | 4.8 | 14.5 | 0.23 | 0.30 | 0.30 | 89 | 1006.9 |
| 20260506153046 | 16 | 183 | 3.2 | 16.1 | 0.23 | 0.28 | 0.28 | 88 | 1007.0 |
| 20260506151545 | 16 | 250 | 4.8 | 12.9 | 0.18 | 0.20 | 0.20 | 87 | 1007.1 |
| 20260506150047 | 16 | 225 | 1.6 | 11.3 | 0.13 | 0.13 | 0.13 | 86 | 1006.9 |
| 20260506144556 | 16 | 244 | 3.2 | 11.3 | 0.08 | 0.08 | 0.08 | 85 | 1006.8 |
| 20260506143039 | 16 | 275 | 4.8 | 9.7 | 0.05 | 0.05 | 0.05 | 83 | 1007.0 |
| 20260506141535 | 17 | 190 | 4.8 | 16.1 | 0.03 | 0.03 | 0.03 | 80 | 1006.9 |
| 20260506140035 | 17 | 200 | 4.8 | 16.1 | 0.00 | 0.00 | 0.00 | 77 | 1006.8 |
| 20260506134533 | 18 | 238 | 9.7 | 17.7 | 0.00 | 0.00 | 0.00 | 75 | 1006.8 |
| 20260506133031 | 18 | 207 | 4.8 | 14.5 | 0.00 | 0.00 | 0.00 | 76 | 1006.6 |
| 20260506131527 | 18 | 275 | 6.4 | 24.1 | 0.00 | 0.00 | 0.00 | 75 | 1006.7 |
| 20260506130027 | 18 | 178 | 4.8 | 25.7 | 0.00 | 0.00 | 0.00 | 75 | 1006.9 |
| 20260506124531 | 18 | 288 | 8.0 | 20.9 | 0.00 | 0.00 | 0.00 | 75 | 1007.1 |
| 20260506123025 | 18 | 279 | 6.4 | 24.1 | 0.00 | 0.00 | 0.00 | 75 | 1006.9 |
| 20260506121522 | 18 | 256 | 4.8 | 14.5 | 0.00 | 0.00 | 0.00 | 76 | 1007.0 |
| 20260506120022 | 18 | 215 | 6.4 | 16.1 | 0.00 | 0.00 | 0.00 | 76 | 1006.8 |
| 20260506114533 | 18 | 175 | 4.8 | 17.7 | 0.00 | 0.00 | 0.00 | 76 | 1006.6 |
| 20260506113020 | 18 | 225 | 3.2 | 16.1 | 0.00 | 0.00 | 0.00 | 76 | 1006.5 |
| 20260506111519 | 17 | 240 | 4.8 | 14.5 | 0.00 | 0.00 | 0.00 | 76 | 1006.6 |
| 20260506110021 | 17 | 98 | 1.6 | 16.1 | 0.00 | 0.00 | 0.00 | 76 | 1006.5 |
| 20260506104515 | 17 | 225 | 3.2 | 16.1 | 0.00 | 0.00 | 0.00 | 76 | 1006.3 |
| 20260506103011 | 17 | 303 | 4.8 | 16.1 | 0.00 | 0.00 | 0.00 | 76 | 1006.4 |
| 20260506101511 | 18 | 223 | 4.8 | 16.1 | 0.00 | 0.00 | 0.00 | 76 | 1006.4 |
| 20260506100018 | 18 | 263 | 1.6 | 17.7 | 0.00 | 0.00 | 0.00 | 75 | 1006.4 |
| 20260506094504 | 18 | 250 | 6.4 | 12.9 | 0.00 | 0.00 | 0.00 | 74 | 1006.3 |
| 20260506093002 | 18 | 244 | 3.2 | 12.9 | 0.00 | 0.00 | 0.00 | 74 | 1006.5 |
| 20260506091502 | 18 | 286 | 8.0 | 17.7 | 0.00 | 0.00 | 0.00 | 73 | 1006.4 |
| 20260506090059 | 18 | 250 | 3.2 | 11.3 | 0.00 | 0.00 | 0.00 | 73 | 1006.4 |
| 20260506084604 | 19 | 261 | 4.8 | 16.1 | 0.00 | 0.00 | 0.00 | 73 | 1006.6 |
| 20260506083057 | 18 | 239 | 4.8 | 19.3 | 0.00 | 0.00 | 0.00 | 73 | 1006.6 |
| 20260506081555 | 18 | 208 | 1.6 | 11.3 | 0.00 | 0.00 | 0.00 | 73 | 1006.6 |
| 20260506073052 | 18 | 254 | 1.6 | 9.7 | 0.00 | 0.00 | 0.00 | 73 | 1006.8 |
| 20260506071556 | 19 | 222 | 3.2 | 12.9 | 0.00 | 0.00 | 0.00 | 72 | 1006.9 |
| 20260506061543 | 20 | 243 | 4.8 | 14.5 | 0.00 | 0.00 | 0.00 | 69 | 1007.3 |
| 20260506044539 | 20 | 261 | 3.2 | 12.9 | 0.00 | 0.00 | 0.00 | 62 | 1007.8 |
| 20260506043029 | 20 | 249 | 1.6 | 14.5 | 0.00 | 0.00 | 0.00 | 61 | 1007.8 |
| 20260506041528 | 20 | 240 | 4.8 | 14.5 | 0.00 | 0.00 | 0.00 | 60 | 1007.9 |
| 20260506040027 | 20 | 223 | 3.2 | 12.9 | 0.00 | 0.00 | 0.00 | 60 | 1007.9 |
| 20260506034525 | 20 | 221 | 1.6 | 17.7 | 0.00 | 0.00 | 0.00 | 60 | 1007.8 |
| 20260506033033 | 21 | 247 | 3.2 | 6.4 | 0.00 | 0.00 | 0.00 | 59 | 1007.6 |
| 20260506031532 | 21 | 217 | 4.8 | 19.3 | 0.00 | 0.00 | 0.00 | 59 | 1007.6 |
| 20260506030045 | 21 | 238 | 4.8 | 12.9 | 0.00 | 0.00 | 0.00 | 58 | 1007.7 |
| 20260506024528 | 21 | 229 | 1.6 | 11.3 | 0.00 | 0.00 | 0.00 | 57 | 1007.7 |
| 20260506023023 | 21 | 194 | 3.2 | 14.5 | 0.00 | 0.00 | 0.00 | 56 | 1007.8 |
| 20260506021523 | 21 | 215 | 3.2 | 12.9 | 0.00 | 0.00 | 0.00 | 55 | 1007.7 |
| 20260506020021 | 22 | 217 | 3.2 | 6.4 | 0.00 | 0.00 | 0.00 | 54 | 1007.7 |
| 20260506014521 | 22 | 192 | 3.2 | 8.0 | 0.00 | 0.00 | 0.00 | 53 | 1007.4 |
| 20260506013020 | 22 | 252 | 3.2 | 11.3 | 0.00 | 0.00 | 0.00 | 52 | 1007.4 |
| 20260506011529 | 22 | 248 | 1.6 | 16.1 | 0.00 | 0.00 | 0.00 | 51 | 1007.1 |
| 20260506010019 | 22 | 273 | 4.8 | 14.5 | 0.00 | 0.00 | 0.00 | 50 | 1007.1 |
| 20260506004533 | 23 | 262 | 4.8 | 14.5 | 0.00 | 0.00 | 0.00 | 48 | 1006.9 |
| 20260506003023 | 23 | 192 | 3.2 | 12.9 | 0.00 | 0.00 | 0.00 | 47 | 1006.8 |
| 20260506001519 | 24 | 180 | 3.2 | 14.5 | 0.00 | 0.00 | 0.00 | 46 | 1006.7 |
| 20260506000022 | 24 | 184 | 3.2 | 11.3 | 0.00 | 0.00 | 0.00 | 43 | 1006.4 |
| 20260505234516 | 25 | 257 | 3.2 | 11.3 | 0.00 | 0.00 | 0.00 | 42 | 1006.3 |
| 20260505233015 | 25 | 271 | 4.8 | 12.9 | 0.00 | 0.00 | 0.00 | 41 | 1006.3 |
| 20260505231521 | 25 | 273 | 4.8 | 17.7 | 0.00 | 0.00 | 0.00 | 42 | 1006.4 |
| 20260505230015 | 25 | 200 | 4.8 | 20.9 | 0.00 | 0.00 | 0.00 | 41 | 1006.2 |
| 20260505224515 | 26 | 123 | 4.8 | 24.1 | 0.00 | 0.00 | 0.00 | 40 | 1006.2 |
| 20260505223014 | 26 | 248 | 9.7 | 24.1 | 0.00 | 0.00 | 0.00 | 40 | 1006.2 |
| 20260505221512 | 26 | 250 | 4.8 | 17.7 | 0.00 | 0.00 | 0.00 | 40 | 1006.2 |
| 20260505220012 | 26 | 234 | 8.0 | 19.3 | 0.00 | 0.00 | 0.00 | 40 | 1006.3 |
| 20260505214513 | 26 | 217 | 9.7 | 20.9 | 0.00 | 0.00 | 0.00 | 39 | 1006.1 |
| 20260505213011 | 26 | 196 | 4.8 | 14.5 | 0.00 | 0.00 | 0.00 | 39 | 1006.2 |
| 20260505211510 | 26 | 261 | 4.8 | 17.7 | 0.00 | 0.00 | 0.00 | 39 | 1006.1 |
| 20260505210010 | 26 | 218 | 1.6 | 14.5 | 0.00 | 0.00 | 0.00 | 39 | 1006.1 |
| 20260505204511 | 26 | 318 | 11.3 | 25.7 | 0.00 | 0.00 | 0.00 | 37 | 1006.0 |
| 20260505203022 | 26 | 277 | 11.3 | 25.7 | 0.00 | 0.00 | 0.00 | 37 | 1006.1 |